Richmond, Australia
Current Conditions -  °F | °C
As of 1:30 AM on Saturday 20 Dec 2014 (Local Time) from YMHB Reporting Station
Broken Clouds Broken Clouds  
Wind Chill: 57°   Ceiling: 4000
Heat Index: 57°   Visibility: 6mi
Dew Point: 41°   Wind: 8mph
Humidity: 55%   Direction: 340°NNW
Pressure: 29.85"   Gusts: NA
Location:  42.73°S, 147.43°E
Report Text: YMHB 191530Z 34007KT 9999 BKN040 14/05 Q1011
Loading
Personal Weather Stations






























Interactive Weather Map New forecast layout! Learn more

10-Day Weather Forecast

Advertisements
Track Severe Weather on mobile